sensor_id;sensor_type;location;lat;lon;timestamp;temperature;humidity
7196;DHT22;3639;51.308;5.624;2023-02-21T00:02:11;8.50;99.90
7196;DHT22;3639;51.308;5.624;2023-02-21T00:04:55;8.50;99.90
7196;DHT22;3639;51.308;5.624;2023-02-21T00:07:39;8.60;99.90
7196;DHT22;3639;51.308;5.624;2023-02-21T00:10:23;8.50;99.90
7196;DHT22;3639;51.308;5.624;2023-02-21T00:13:07;8.60;99.90
7196;DHT22;3639;51.308;5.624;2023-02-21T00:15:52;8.50;99.90
7196;DHT22;3639;51.308;5.624;2023-02-21T00:18:37;8.50;99.90
7196;DHT22;3639;51.308;5.624;2023-02-21T00:21:21;8.50;99.90
7196;DHT22;3639;51.308;5.624;2023-02-21T00:24:06;8.50;99.90
7196;DHT22;3639;51.308;5.624;2023-02-21T00:26:50;8.40;99.90
7196;DHT22;3639;51.308;5.624;2023-02-21T00:29:34;8.40;99.90
7196;DHT22;3639;51.308;5.624;2023-02-21T00:32:18;8.50;99.90
7196;DHT22;3639;51.308;5.624;2023-02-21T00:35:03;8.50;99.90
7196;DHT22;3639;51.308;5.624;2023-02-21T00:37:51;8.50;99.90
7196;DHT22;3639;51.308;5.624;2023-02-21T00:40:35;8.50;99.90
7196;DHT22;3639;51.308;5.624;2023-02-21T00:43:30;8.40;99.90
7196;DHT22;3639;51.308;5.624;2023-02-21T00:46:15;8.40;99.90
7196;DHT22;3639;51.308;5.624;2023-02-21T00:48:59;8.40;99.90
7196;DHT22;3639;51.308;5.624;2023-02-21T00:51:44;8.40;99.90
7196;DHT22;3639;51.308;5.624;2023-02-21T00:54:28;8.40;99.90
7196;DHT22;3639;51.308;5.624;2023-02-21T00:57:13;8.40;99.90
7196;DHT22;3639;51.308;5.624;2023-02-21T00:59:57;8.30;99.90
7196;DHT22;3639;51.308;5.624;2023-02-21T01:02:42;8.30;99.90
7196;DHT22;3639;51.308;5.624;2023-02-21T01:05:26;8.30;99.90
7196;DHT22;3639;51.308;5.624;2023-02-21T01:08:10;8.30;99.90
7196;DHT22;3639;51.308;5.624;2023-02-21T01:10:55;8.30;99.90
7196;DHT22;3639;51.308;5.624;2023-02-21T01:13:39;8.20;99.90
7196;DHT22;3639;51.308;5.624;2023-02-21T01:16:23;8.20;99.90
7196;DHT22;3639;51.308;5.624;2023-02-21T01:19:07;8.20;99.90
7196;DHT22;3639;51.308;5.624;2023-02-21T01:21:51;8.20;99.90
7196;DHT22;3639;51.308;5.624;2023-02-21T01:24:35;8.30;99.90
7196;DHT22;3639;51.308;5.624;2023-02-21T01:27:20;8.30;99.90
7196;DHT22;3639;51.308;5.624;2023-02-21T01:30:04;8.30;99.90
7196;DHT22;3639;51.308;5.624;2023-02-21T01:32:48;8.30;99.90
7196;DHT22;3639;51.308;5.624;2023-02-21T01:35:32;8.20;99.90
7196;DHT22;3639;51.308;5.624;2023-02-21T01:38:16;8.20;99.90
7196;DHT22;3639;51.308;5.624;2023-02-21T01:41:01;8.20;99.90
7196;DHT22;3639;51.308;5.624;2023-02-21T01:44:05;8.20;99.90
7196;DHT22;3639;51.308;5.624;2023-02-21T01:46:50;8.20;99.90
7196;DHT22;3639;51.308;5.624;2023-02-21T01:49:37;8.20;99.90
7196;DHT22;3639;51.308;5.624;2023-02-21T01:52:22;8.10;99.90
7196;DHT22;3639;51.308;5.624;2023-02-21T01:55:08;8.10;99.90
7196;DHT22;3639;51.308;5.624;2023-02-21T01:57:54;8.10;99.90
7196;DHT22;3639;51.308;5.624;2023-02-21T02:00:39;8.10;99.90
7196;DHT22;3639;51.308;5.624;2023-02-21T02:03:23;8.10;99.90
7196;DHT22;3639;51.308;5.624;2023-02-21T02:06:12;8.00;99.90
7196;DHT22;3639;51.308;5.624;2023-02-21T02:08:57;8.00;99.90
7196;DHT22;3639;51.308;5.624;2023-02-21T02:31:51;8.00;99.90
7196;DHT22;3639;51.308;5.624;2023-02-21T02:34:44;8.00;99.90
7196;DHT22;3639;51.308;5.624;2023-02-21T02:40:00;7.90;99.90
7196;DHT22;3639;51.308;5.624;2023-02-21T02:45:42;7.90;99.90
7196;DHT22;3639;51.308;5.624;2023-02-21T02:48:25;7.90;99.90
7196;DHT22;3639;51.308;5.624;2023-02-21T02:50:53;7.90;99.90
7196;DHT22;3639;51.308;5.624;2023-02-21T02:53:23;7.90;99.90
7196;DHT22;3639;51.308;5.624;2023-02-21T02:55:58;8.00;99.90
7196;DHT22;3639;51.308;5.624;2023-02-21T02:58:39;7.90;99.90
7196;DHT22;3639;51.308;5.624;2023-02-21T03:01:30;7.90;99.90
7196;DHT22;3639;51.308;5.624;2023-02-21T03:04:29;7.90;99.90
7196;DHT22;3639;51.308;5.624;2023-02-21T03:09:53;7.90;99.90
7196;DHT22;3639;51.308;5.624;2023-02-21T03:12:36;7.90;99.90
7196;DHT22;3639;51.308;5.624;2023-02-21T03:15:24;7.90;99.90
7196;DHT22;3639;51.308;5.624;2023-02-21T03:18:25;7.90;99.90
7196;DHT22;3639;51.308;5.624;2023-02-21T03:21:00;7.90;99.90
7196;DHT22;3639;51.308;5.624;2023-02-21T03:23:30;7.90;99.90
7196;DHT22;3639;51.308;5.624;2023-02-21T03:26:00;7.90;99.90
7196;DHT22;3639;51.308;5.624;2023-02-21T03:28:28;7.90;99.90
7196;DHT22;3639;51.308;5.624;2023-02-21T03:30:55;7.90;99.90
7196;DHT22;3639;51.308;5.624;2023-02-21T03:33:22;7.90;99.90
7196;DHT22;3639;51.308;5.624;2023-02-21T03:35:48;7.90;99.90
7196;DHT22;3639;51.308;5.624;2023-02-21T03:38:14;7.90;99.90
7196;DHT22;3639;51.308;5.624;2023-02-21T03:40:39;7.90;99.90
7196;DHT22;3639;51.308;5.624;2023-02-21T03:43:05;7.90;99.90
7196;DHT22;3639;51.308;5.624;2023-02-21T03:45:32;7.90;99.90
7196;DHT22;3639;51.308;5.624;2023-02-21T03:47:58;7.90;99.90
7196;DHT22;3639;51.308;5.624;2023-02-21T03:50:24;7.90;99.90
7196;DHT22;3639;51.308;5.624;2023-02-21T03:52:49;7.90;99.90
7196;DHT22;3639;51.308;5.624;2023-02-21T03:55:18;7.90;99.90
7196;DHT22;3639;51.308;5.624;2023-02-21T03:57:43;7.90;99.90
7196;DHT22;3639;51.308;5.624;2023-02-21T04:00:10;7.90;99.90
7196;DHT22;3639;51.308;5.624;2023-02-21T04:02:35;7.90;99.90
7196;DHT22;3639;51.308;5.624;2023-02-21T04:05:01;7.80;99.90
7196;DHT22;3639;51.308;5.624;2023-02-21T04:07:27;7.90;99.90
7196;DHT22;3639;51.308;5.624;2023-02-21T04:09:52;7.90;99.90
7196;DHT22;3639;51.308;5.624;2023-02-21T04:12:18;7.80;99.90
7196;DHT22;3639;51.308;5.624;2023-02-21T04:14:44;7.80;99.90
7196;DHT22;3639;51.308;5.624;2023-02-21T04:17:09;7.90;99.90
7196;DHT22;3639;51.308;5.624;2023-02-21T04:19:35;7.90;99.90
7196;DHT22;3639;51.308;5.624;2023-02-21T04:22:01;7.90;99.90
7196;DHT22;3639;51.308;5.624;2023-02-21T04:24:27;7.90;99.90
7196;DHT22;3639;51.308;5.624;2023-02-21T04:26:54;7.90;99.90
7196;DHT22;3639;51.308;5.624;2023-02-21T04:29:20;7.90;99.90
7196;DHT22;3639;51.308;5.624;2023-02-21T04:31:45;7.80;99.90
7196;DHT22;3639;51.308;5.624;2023-02-21T04:34:11;7.80;99.90
7196;DHT22;3639;51.308;5.624;2023-02-21T04:36:37;7.90;99.90
7196;DHT22;3639;51.308;5.624;2023-02-21T04:39:03;7.80;99.90
7196;DHT22;3639;51.308;5.624;2023-02-21T04:41:30;7.80;99.90
7196;DHT22;3639;51.308;5.624;2023-02-21T04:43:56;7.80;99.90
7196;DHT22;3639;51.308;5.624;2023-02-21T04:46:22;7.80;99.90
7196;DHT22;3639;51.308;5.624;2023-02-21T04:48:49;7.80;99.90
7196;DHT22;3639;51.308;5.624;2023-02-21T04:51:17;7.80;99.90
7196;DHT22;3639;51.308;5.624;2023-02-21T04:53:45;7.80;99.90
7196;DHT22;3639;51.308;5.624;2023-02-21T04:56:11;7.70;99.90
7196;DHT22;3639;51.308;5.624;2023-02-21T04:58:37;7.80;99.90
7196;DHT22;3639;51.308;5.624;2023-02-21T05:01:03;7.80;99.90
7196;DHT22;3639;51.308;5.624;2023-02-21T05:03:29;7.80;99.90
7196;DHT22;3639;51.308;5.624;2023-02-21T05:05:54;7.70;99.90
7196;DHT22;3639;51.308;5.624;2023-02-21T05:08:20;7.70;99.90
7196;DHT22;3639;51.308;5.624;2023-02-21T05:10:46;7.70;99.90
7196;DHT22;3639;51.308;5.624;2023-02-21T05:13:13;7.70;99.90
7196;DHT22;3639;51.308;5.624;2023-02-21T05:15:38;7.70;99.90
7196;DHT22;3639;51.308;5.624;2023-02-21T05:18:04;7.70;99.90
7196;DHT22;3639;51.308;5.624;2023-02-21T05:20:30;7.70;99.90
7196;DHT22;3639;51.308;5.624;2023-02-21T05:22:55;7.60;99.90
7196;DHT22;3639;51.308;5.624;2023-02-21T05:25:22;7.60;99.90
7196;DHT22;3639;51.308;5.624;2023-02-21T05:27:49;7.60;99.90
7196;DHT22;3639;51.308;5.624;2023-02-21T05:30:18;7.70;99.90
7196;DHT22;3639;51.308;5.624;2023-02-21T05:32:44;7.60;99.90
7196;DHT22;3639;51.308;5.624;2023-02-21T05:35:10;7.60;99.90
7196;DHT22;3639;51.308;5.624;2023-02-21T05:37:36;7.60;99.90
7196;DHT22;3639;51.308;5.624;2023-02-21T05:40:02;7.60;99.90
7196;DHT22;3639;51.308;5.624;2023-02-21T05:42:30;7.60;99.90
7196;DHT22;3639;51.308;5.624;2023-02-21T05:44:55;7.60;99.90
7196;DHT22;3639;51.308;5.624;2023-02-21T05:47:21;7.60;99.90
7196;DHT22;3639;51.308;5.624;2023-02-21T05:49:47;7.60;99.90
7196;DHT22;3639;51.308;5.624;2023-02-21T05:52:14;7.60;99.90
7196;DHT22;3639;51.308;5.624;2023-02-21T05:54:40;7.60;99.90
7196;DHT22;3639;51.308;5.624;2023-02-21T05:57:06;7.60;99.90
7196;DHT22;3639;51.308;5.624;2023-02-21T05:59:31;7.60;99.90
7196;DHT22;3639;51.308;5.624;2023-02-21T06:01:57;7.60;99.90
7196;DHT22;3639;51.308;5.624;2023-02-21T06:04:23;7.50;99.90
7196;DHT22;3639;51.308;5.624;2023-02-21T06:06:49;7.60;99.90
7196;DHT22;3639;51.308;5.624;2023-02-21T06:09:16;7.50;99.90
7196;DHT22;3639;51.308;5.624;2023-02-21T06:11:43;7.50;99.90
7196;DHT22;3639;51.308;5.624;2023-02-21T06:14:19;7.50;99.90
7196;DHT22;3639;51.308;5.624;2023-02-21T06:16:45;7.50;99.90
7196;DHT22;3639;51.308;5.624;2023-02-21T06:19:11;7.50;99.90
7196;DHT22;3639;51.308;5.624;2023-02-21T06:21:38;7.50;99.90
7196;DHT22;3639;51.308;5.624;2023-02-21T06:24:05;7.50;99.90
7196;DHT22;3639;51.308;5.624;2023-02-21T06:26:31;7.50;99.90
7196;DHT22;3639;51.308;5.624;2023-02-21T06:28:57;7.50;99.90
7196;DHT22;3639;51.308;5.624;2023-02-21T06:31:23;7.50;99.90
7196;DHT22;3639;51.308;5.624;2023-02-21T06:33:49;7.50;99.90
7196;DHT22;3639;51.308;5.624;2023-02-21T06:36:21;7.50;99.90
7196;DHT22;3639;51.308;5.624;2023-02-21T06:38:48;7.50;99.90
7196;DHT22;3639;51.308;5.624;2023-02-21T06:41:19;7.50;99.90
7196;DHT22;3639;51.308;5.624;2023-02-21T06:43:45;7.50;99.90
7196;DHT22;3639;51.308;5.624;2023-02-21T06:46:19;7.50;99.90
7196;DHT22;3639;51.308;5.624;2023-02-21T06:48:45;7.40;99.90
7196;DHT22;3639;51.308;5.624;2023-02-21T06:51:11;7.40;99.90
7196;DHT22;3639;51.308;5.624;2023-02-21T06:53:39;7.40;99.90
7196;DHT22;3639;51.308;5.624;2023-02-21T06:56:06;7.40;99.90
7196;DHT22;3639;51.308;5.624;2023-02-21T06:58:32;7.40;99.90
7196;DHT22;3639;51.308;5.624;2023-02-21T07:00:57;7.40;99.90
7196;DHT22;3639;51.308;5.624;2023-02-21T07:03:23;7.40;99.90
7196;DHT22;3639;51.308;5.624;2023-02-21T07:05:49;7.40;99.90
7196;DHT22;3639;51.308;5.624;2023-02-21T07:08:15;7.40;99.90
7196;DHT22;3639;51.308;5.624;2023-02-21T07:10:40;7.40;99.90
7196;DHT22;3639;51.308;5.624;2023-02-21T07:13:06;7.40;99.90
7196;DHT22;3639;51.308;5.624;2023-02-21T07:15:32;7.40;99.90
7196;DHT22;3639;51.308;5.624;2023-02-21T07:17:57;7.40;99.90
7196;DHT22;3639;51.308;5.624;2023-02-21T07:20:23;7.40;99.90
7196;DHT22;3639;51.308;5.624;2023-02-21T07:22:49;7.40;99.90
7196;DHT22;3639;51.308;5.624;2023-02-21T07:25:16;7.40;99.90
7196;DHT22;3639;51.308;5.624;2023-02-21T07:27:43;7.40;99.90
7196;DHT22;3639;51.308;5.624;2023-02-21T07:30:10;7.40;99.90
7196;DHT22;3639;51.308;5.624;2023-02-21T07:32:36;7.40;99.90
7196;DHT22;3639;51.308;5.624;2023-02-21T07:35:02;7.40;99.90
7196;DHT22;3639;51.308;5.624;2023-02-21T07:37:28;7.40;99.90
7196;DHT22;3639;51.308;5.624;2023-02-21T07:39:54;7.50;99.90
7196;DHT22;3639;51.308;5.624;2023-02-21T07:42:19;7.50;99.90
7196;DHT22;3639;51.308;5.624;2023-02-21T07:44:45;7.50;99.90
7196;DHT22;3639;51.308;5.624;2023-02-21T07:47:11;7.50;99.90
7196;DHT22;3639;51.308;5.624;2023-02-21T07:49:38;7.40;99.90
7196;DHT22;3639;51.308;5.624;2023-02-21T07:52:04;7.40;99.90
7196;DHT22;3639;51.308;5.624;2023-02-21T07:54:30;7.50;99.90
7196;DHT22;3639;51.308;5.624;2023-02-21T07:56:55;7.50;99.90
7196;DHT22;3639;51.308;5.624;2023-02-21T07:59:21;7.50;99.90
7196;DHT22;3639;51.308;5.624;2023-02-21T08:01:48;7.50;99.90
7196;DHT22;3639;51.308;5.624;2023-02-21T08:04:13;7.60;99.90
7196;DHT22;3639;51.308;5.624;2023-02-21T08:06:39;7.60;99.90
7196;DHT22;3639;51.308;5.624;2023-02-21T08:09:05;7.60;99.90
7196;DHT22;3639;51.308;5.624;2023-02-21T08:11:31;7.60;99.90
7196;DHT22;3639;51.308;5.624;2023-02-21T08:13:58;7.60;99.90
7196;DHT22;3639;51.308;5.624;2023-02-21T08:16:24;7.60;99.90
7196;DHT22;3639;51.308;5.624;2023-02-21T08:18:49;7.60;99.90
7196;DHT22;3639;51.308;5.624;2023-02-21T08:21:15;7.70;99.90
7196;DHT22;3639;51.308;5.624;2023-02-21T08:23:41;7.70;99.90
7196;DHT22;3639;51.308;5.624;2023-02-21T08:26:06;7.80;99.90
7196;DHT22;3639;51.308;5.624;2023-02-21T08:28:32;7.80;99.90
7196;DHT22;3639;51.308;5.624;2023-02-21T08:30:58;7.90;99.90
7196;DHT22;3639;51.308;5.624;2023-02-21T08:33:23;7.90;99.90
7196;DHT22;3639;51.308;5.624;2023-02-21T08:35:49;8.00;99.90
7196;DHT22;3639;51.308;5.624;2023-02-21T08:38:17;8.00;99.90
7196;DHT22;3639;51.308;5.624;2023-02-21T08:40:43;8.00;99.90
7196;DHT22;3639;51.308;5.624;2023-02-21T08:43:09;8.00;99.90
7196;DHT22;3639;51.308;5.624;2023-02-21T08:45:35;8.00;99.90
7196;DHT22;3639;51.308;5.624;2023-02-21T08:48:01;8.10;99.90
7196;DHT22;3639;51.308;5.624;2023-02-21T08:50:27;8.10;99.90
7196;DHT22;3639;51.308;5.624;2023-02-21T08:52:53;8.00;99.90
7196;DHT22;3639;51.308;5.624;2023-02-21T08:55:20;8.00;99.90
7196;DHT22;3639;51.308;5.624;2023-02-21T08:57:51;8.10;99.90
7196;DHT22;3639;51.308;5.624;2023-02-21T09:00:18;8.10;99.90
7196;DHT22;3639;51.308;5.624;2023-02-21T09:02:44;8.10;99.90
7196;DHT22;3639;51.308;5.624;2023-02-21T09:05:13;8.20;99.90
7196;DHT22;3639;51.308;5.624;2023-02-21T09:07:40;8.20;99.90
7196;DHT22;3639;51.308;5.624;2023-02-21T09:10:06;8.20;99.90
7196;DHT22;3639;51.308;5.624;2023-02-21T09:12:34;8.20;99.90
7196;DHT22;3639;51.308;5.624;2023-02-21T09:15:00;8.20;99.90
7196;DHT22;3639;51.308;5.624;2023-02-21T09:17:26;8.20;99.90
7196;DHT22;3639;51.308;5.624;2023-02-21T09:19:51;8.20;99.90
7196;DHT22;3639;51.308;5.624;2023-02-21T09:22:17;8.20;99.90
7196;DHT22;3639;51.308;5.624;2023-02-21T09:24:43;8.30;99.90
7196;DHT22;3639;51.308;5.624;2023-02-21T09:27:09;8.30;99.90
7196;DHT22;3639;51.308;5.624;2023-02-21T09:29:35;8.40;99.90
7196;DHT22;3639;51.308;5.624;2023-02-21T09:32:02;8.40;99.90
7196;DHT22;3639;51.308;5.624;2023-02-21T09:34:28;8.40;99.90
7196;DHT22;3639;51.308;5.624;2023-02-21T09:36:54;8.40;99.90
7196;DHT22;3639;51.308;5.624;2023-02-21T09:39:21;8.40;99.90
7196;DHT22;3639;51.308;5.624;2023-02-21T09:41:47;8.40;99.90
7196;DHT22;3639;51.308;5.624;2023-02-21T09:44:19;8.50;99.90
7196;DHT22;3639;51.308;5.624;2023-02-21T09:46:53;8.60;99.90
7196;DHT22;3639;51.308;5.624;2023-02-21T09:49:24;8.50;99.90
7196;DHT22;3639;51.308;5.624;2023-02-21T09:51:52;8.60;99.90
7196;DHT22;3639;51.308;5.624;2023-02-21T09:54:35;8.60;99.90
7196;DHT22;3639;51.308;5.624;2023-02-21T09:57:05;8.60;99.90
7196;DHT22;3639;51.308;5.624;2023-02-21T09:59:31;8.60;99.90
7196;DHT22;3639;51.308;5.624;2023-02-21T10:02:16;8.60;99.90
7196;DHT22;3639;51.308;5.624;2023-02-21T10:05:02;8.60;99.90
7196;DHT22;3639;51.308;5.624;2023-02-21T10:07:57;8.60;99.90
7196;DHT22;3639;51.308;5.624;2023-02-21T10:15:46;8.60;99.90
7196;DHT22;3639;51.308;5.624;2023-02-21T10:18:36;8.60;99.90
7196;DHT22;3639;51.308;5.624;2023-02-21T10:21:11;8.60;99.90
7196;DHT22;3639;51.308;5.624;2023-02-21T10:23:42;8.60;99.90
7196;DHT22;3639;51.308;5.624;2023-02-21T10:26:13;8.50;99.90
7196;DHT22;3639;51.308;5.624;2023-02-21T10:28:40;8.40;99.90
7196;DHT22;3639;51.308;5.624;2023-02-21T10:31:33;8.40;99.90
7196;DHT22;3639;51.308;5.624;2023-02-21T10:33:59;8.40;99.90
7196;DHT22;3639;51.308;5.624;2023-02-21T10:36:26;8.30;99.90
7196;DHT22;3639;51.308;5.624;2023-02-21T10:38:54;8.40;99.90
7196;DHT22;3639;51.308;5.624;2023-02-21T10:41:21;8.40;99.90
7196;DHT22;3639;51.308;5.624;2023-02-21T10:43:51;8.40;99.90
7196;DHT22;3639;51.308;5.624;2023-02-21T10:46:31;8.40;99.90
7196;DHT22;3639;51.308;5.624;2023-02-21T10:51:47;8.40;99.90
7196;DHT22;3639;51.308;5.624;2023-02-21T10:54:26;8.50;99.90
7196;DHT22;3639;51.308;5.624;2023-02-21T10:56:52;8.50;99.90
7196;DHT22;3639;51.308;5.624;2023-02-21T10:59:33;8.60;99.90
7196;DHT22;3639;51.308;5.624;2023-02-21T11:02:00;8.60;99.90
7196;DHT22;3639;51.308;5.624;2023-02-21T11:04:30;8.50;99.90
7196;DHT22;3639;51.308;5.624;2023-02-21T11:07:05;8.50;99.90
7196;DHT22;3639;51.308;5.624;2023-02-21T11:09:41;8.60;99.90
7196;DHT22;3639;51.308;5.624;2023-02-21T11:12:27;8.60;99.90
7196;DHT22;3639;51.308;5.624;2023-02-21T11:17:25;8.70;99.90
7196;DHT22;3639;51.308;5.624;2023-02-21T11:20:18;8.80;99.90
7196;DHT22;3639;51.308;5.624;2023-02-21T11:22:46;8.80;99.90
7196;DHT22;3639;51.308;5.624;2023-02-21T11:27:57;8.80;99.90
7196;DHT22;3639;51.308;5.624;2023-02-21T11:30:23;8.80;99.90
7196;DHT22;3639;51.308;5.624;2023-02-21T11:32:52;8.80;99.90
7196;DHT22;3639;51.308;5.624;2023-02-21T11:40:42;8.50;99.90
7196;DHT22;3639;51.308;5.624;2023-02-21T11:43:26;8.50;99.90
7196;DHT22;3639;51.308;5.624;2023-02-21T11:49:05;8.60;99.90
7196;DHT22;3639;51.308;5.624;2023-02-21T11:51:50;8.60;99.90
7196;DHT22;3639;51.308;5.624;2023-02-21T11:54:26;8.70;99.90
7196;DHT22;3639;51.308;5.624;2023-02-21T12:40:19;9.00;99.90
7196;DHT22;3639;51.308;5.624;2023-02-21T12:50:43;9.10;99.90
7196;DHT22;3639;51.308;5.624;2023-02-21T12:55:57;9.00;99.90
7196;DHT22;3639;51.308;5.624;2023-02-21T12:58:31;9.00;99.90
7196;DHT22;3639;51.308;5.624;2023-02-21T13:01:06;9.00;99.90
7196;DHT22;3639;51.308;5.624;2023-02-21T13:03:55;9.00;99.90
7196;DHT22;3639;51.308;5.624;2023-02-21T13:09:24;8.90;99.90
7196;DHT22;3639;51.308;5.624;2023-02-21T13:17:11;8.90;99.90
7196;DHT22;3639;51.308;5.624;2023-02-21T13:25:51;8.80;99.90
7196;DHT22;3639;51.308;5.624;2023-02-21T13:28:22;8.80;99.90
7196;DHT22;3639;51.308;5.624;2023-02-21T13:30:51;8.70;99.90
7196;DHT22;3639;51.308;5.624;2023-02-21T13:33:41;8.80;99.90
7196;DHT22;3639;51.308;5.624;2023-02-21T13:36:40;8.90;99.90
7196;DHT22;3639;51.308;5.624;2023-02-21T13:39:19;8.90;99.90
7196;DHT22;3639;51.308;5.624;2023-02-21T13:41:52;8.90;99.90
7196;DHT22;3639;51.308;5.624;2023-02-21T13:44:30;8.90;99.90
7196;DHT22;3639;51.308;5.624;2023-02-21T13:47:06;8.90;99.90
7196;DHT22;3639;51.308;5.624;2023-02-21T13:57:44;8.80;99.90
7196;DHT22;3639;51.308;5.624;2023-02-21T14:08:18;8.90;99.90
7196;DHT22;3639;51.308;5.624;2023-02-21T14:10:50;9.10;99.90
7196;DHT22;3639;51.308;5.624;2023-02-21T14:18:46;9.20;99.90
7196;DHT22;3639;51.308;5.624;2023-02-21T14:37:34;9.30;99.90
7196;DHT22;3639;51.308;5.624;2023-02-21T14:42:59;9.20;99.90
7196;DHT22;3639;51.308;5.624;2023-02-21T14:45:50;9.20;99.90
7196;DHT22;3639;51.308;5.624;2023-02-21T15:08:19;9.00;99.90
7196;DHT22;3639;51.308;5.624;2023-02-21T15:10:47;8.90;99.90
7196;DHT22;3639;51.308;5.624;2023-02-21T15:13:29;8.90;99.90
7196;DHT22;3639;51.308;5.624;2023-02-21T15:23:37;8.90;99.90
7196;DHT22;3639;51.308;5.624;2023-02-21T15:26:23;8.80;99.90
7196;DHT22;3639;51.308;5.624;2023-02-21T15:29:10;8.80;99.90
7196;DHT22;3639;51.308;5.624;2023-02-21T15:31:51;8.80;99.90
7196;DHT22;3639;51.308;5.624;2023-02-21T15:34:24;8.70;99.90
7196;DHT22;3639;51.308;5.624;2023-02-21T15:37:41;8.70;99.90
7196;DHT22;3639;51.308;5.624;2023-02-21T15:40:05;8.70;99.90
7196;DHT22;3639;51.308;5.624;2023-02-21T15:42:38;8.60;99.90
7196;DHT22;3639;51.308;5.624;2023-02-21T15:45:17;8.60;99.90
7196;DHT22;3639;51.308;5.624;2023-02-21T15:47:43;8.60;99.90
7196;DHT22;3639;51.308;5.624;2023-02-21T15:50:18;8.60;99.90
7196;DHT22;3639;51.308;5.624;2023-02-21T15:52:49;8.50;99.90
7196;DHT22;3639;51.308;5.624;2023-02-21T15:58:00;8.40;99.90
7196;DHT22;3639;51.308;5.624;2023-02-21T16:00:37;8.40;99.90
7196;DHT22;3639;51.308;5.624;2023-02-21T16:09:06;8.30;99.90
7196;DHT22;3639;51.308;5.624;2023-02-21T16:11:51;8.30;99.90
7196;DHT22;3639;51.308;5.624;2023-02-21T16:17:04;8.20;99.90
7196;DHT22;3639;51.308;5.624;2023-02-21T16:19:31;8.20;99.90
7196;DHT22;3639;51.308;5.624;2023-02-21T16:22:37;8.10;99.90
7196;DHT22;3639;51.308;5.624;2023-02-21T16:25:10;8.00;99.90
7196;DHT22;3639;51.308;5.624;2023-02-21T16:27:39;8.00;99.90
7196;DHT22;3639;51.308;5.624;2023-02-21T16:30:10;8.00;99.90
7196;DHT22;3639;51.308;5.624;2023-02-21T16:32:44;8.00;99.90
7196;DHT22;3639;51.308;5.624;2023-02-21T16:35:17;8.00;99.90
7196;DHT22;3639;51.308;5.624;2023-02-21T16:37:45;8.00;99.90
7196;DHT22;3639;51.308;5.624;2023-02-21T16:40:13;8.00;99.90
7196;DHT22;3639;51.308;5.624;2023-02-21T16:42:39;8.00;99.90
7196;DHT22;3639;51.308;5.624;2023-02-21T16:45:05;8.00;99.90
7196;DHT22;3639;51.308;5.624;2023-02-21T16:47:30;8.00;99.90
7196;DHT22;3639;51.308;5.624;2023-02-21T16:49:56;8.00;99.90
7196;DHT22;3639;51.308;5.624;2023-02-21T16:52:22;8.00;99.90
7196;DHT22;3639;51.308;5.624;2023-02-21T16:54:47;8.10;99.90
7196;DHT22;3639;51.308;5.624;2023-02-21T16:57:13;8.10;99.90
7196;DHT22;3639;51.308;5.624;2023-02-21T16:59:38;8.10;99.90
7196;DHT22;3639;51.308;5.624;2023-02-21T17:02:04;8.10;99.90
7196;DHT22;3639;51.308;5.624;2023-02-21T17:04:31;8.10;99.90
7196;DHT22;3639;51.308;5.624;2023-02-21T17:07:03;8.00;99.90
7196;DHT22;3639;51.308;5.624;2023-02-21T17:09:33;8.00;99.90
7196;DHT22;3639;51.308;5.624;2023-02-21T17:12:06;8.00;99.90
7196;DHT22;3639;51.308;5.624;2023-02-21T17:14:33;8.00;99.90
7196;DHT22;3639;51.308;5.624;2023-02-21T17:16:59;8.00;99.90
7196;DHT22;3639;51.308;5.624;2023-02-21T17:19:24;7.90;99.90
7196;DHT22;3639;51.308;5.624;2023-02-21T17:21:50;7.90;99.90
7196;DHT22;3639;51.308;5.624;2023-02-21T17:24:17;7.80;99.90
7196;DHT22;3639;51.308;5.624;2023-02-21T17:26:43;7.80;99.90
7196;DHT22;3639;51.308;5.624;2023-02-21T17:29:10;7.80;99.90
7196;DHT22;3639;51.308;5.624;2023-02-21T17:31:36;7.80;99.90
7196;DHT22;3639;51.308;5.624;2023-02-21T17:34:02;7.80;99.90
7196;DHT22;3639;51.308;5.624;2023-02-21T17:36:29;7.90;99.90
7196;DHT22;3639;51.308;5.624;2023-02-21T17:38:55;7.90;99.90
7196;DHT22;3639;51.308;5.624;2023-02-21T17:41:21;7.80;99.90
7196;DHT22;3639;51.308;5.624;2023-02-21T17:43:47;7.80;99.90
7196;DHT22;3639;51.308;5.624;2023-02-21T17:46:16;7.80;99.90
7196;DHT22;3639;51.308;5.624;2023-02-21T17:48:42;7.80;99.90
7196;DHT22;3639;51.308;5.624;2023-02-21T17:51:09;7.80;99.90
7196;DHT22;3639;51.308;5.624;2023-02-21T17:53:40;7.70;99.90
7196;DHT22;3639;51.308;5.624;2023-02-21T17:56:06;7.80;99.90
7196;DHT22;3639;51.308;5.624;2023-02-21T17:58:32;7.80;99.90
7196;DHT22;3639;51.308;5.624;2023-02-21T18:00:58;7.80;99.90
7196;DHT22;3639;51.308;5.624;2023-02-21T18:03:24;7.80;99.90
7196;DHT22;3639;51.308;5.624;2023-02-21T18:05:50;7.80;99.90
7196;DHT22;3639;51.308;5.624;2023-02-21T18:08:17;7.80;99.90
7196;DHT22;3639;51.308;5.624;2023-02-21T18:10:43;7.90;99.90
7196;DHT22;3639;51.308;5.624;2023-02-21T18:13:18;7.90;99.90
7196;DHT22;3639;51.308;5.624;2023-02-21T18:15:45;7.90;99.90
7196;DHT22;3639;51.308;5.624;2023-02-21T18:18:10;7.90;99.90
7196;DHT22;3639;51.308;5.624;2023-02-21T18:20:36;7.90;99.90
7196;DHT22;3639;51.308;5.624;2023-02-21T18:23:02;7.80;99.90
7196;DHT22;3639;51.308;5.624;2023-02-21T18:25:28;7.90;99.90
7196;DHT22;3639;51.308;5.624;2023-02-21T18:27:54;7.80;99.90
7196;DHT22;3639;51.308;5.624;2023-02-21T18:30:20;7.70;99.90
7196;DHT22;3639;51.308;5.624;2023-02-21T18:32:46;7.70;99.90
7196;DHT22;3639;51.308;5.624;2023-02-21T18:35:14;7.70;99.90
7196;DHT22;3639;51.308;5.624;2023-02-21T18:37:40;7.70;99.90
7196;DHT22;3639;51.308;5.624;2023-02-21T18:40:06;7.70;99.90
7196;DHT22;3639;51.308;5.624;2023-02-21T18:42:33;7.80;99.90
7196;DHT22;3639;51.308;5.624;2023-02-21T18:44:59;7.70;99.90
7196;DHT22;3639;51.308;5.624;2023-02-21T18:47:26;7.80;99.90
7196;DHT22;3639;51.308;5.624;2023-02-21T18:49:51;7.70;99.90
7196;DHT22;3639;51.308;5.624;2023-02-21T18:52:17;7.70;99.90
7196;DHT22;3639;51.308;5.624;2023-02-21T18:54:48;7.70;99.90
7196;DHT22;3639;51.308;5.624;2023-02-21T18:57:18;7.70;99.90
7196;DHT22;3639;51.308;5.624;2023-02-21T18:59:45;7.70;99.90
7196;DHT22;3639;51.308;5.624;2023-02-21T19:02:13;7.70;99.90
7196;DHT22;3639;51.308;5.624;2023-02-21T19:04:42;7.60;99.90
7196;DHT22;3639;51.308;5.624;2023-02-21T19:07:09;7.70;99.90
7196;DHT22;3639;51.308;5.624;2023-02-21T19:09:35;7.60;99.90
7196;DHT22;3639;51.308;5.624;2023-02-21T19:12:02;7.60;99.90
7196;DHT22;3639;51.308;5.624;2023-02-21T19:14:28;7.60;99.90
7196;DHT22;3639;51.308;5.624;2023-02-21T19:16:54;7.60;99.90
7196;DHT22;3639;51.308;5.624;2023-02-21T19:19:20;7.60;99.90
7196;DHT22;3639;51.308;5.624;2023-02-21T19:21:46;7.60;99.90
7196;DHT22;3639;51.308;5.624;2023-02-21T19:24:12;7.60;99.90
7196;DHT22;3639;51.308;5.624;2023-02-21T19:26:37;7.60;99.90
7196;DHT22;3639;51.308;5.624;2023-02-21T19:29:03;7.60;99.90
7196;DHT22;3639;51.308;5.624;2023-02-21T19:31:29;7.60;99.90
7196;DHT22;3639;51.308;5.624;2023-02-21T19:33:54;7.60;99.90
7196;DHT22;3639;51.308;5.624;2023-02-21T19:36:20;7.50;99.90
7196;DHT22;3639;51.308;5.624;2023-02-21T19:38:47;7.50;99.90
7196;DHT22;3639;51.308;5.624;2023-02-21T19:41:12;7.50;99.90
7196;DHT22;3639;51.308;5.624;2023-02-21T19:43:38;7.40;99.90
7196;DHT22;3639;51.308;5.624;2023-02-21T19:46:04;7.40;99.90
7196;DHT22;3639;51.308;5.624;2023-02-21T19:48:30;7.40;99.90
7196;DHT22;3639;51.308;5.624;2023-02-21T19:50:56;7.40;99.90
7196;DHT22;3639;51.308;5.624;2023-02-21T19:53:21;7.40;99.90
7196;DHT22;3639;51.308;5.624;2023-02-21T19:55:47;7.40;99.90
7196;DHT22;3639;51.308;5.624;2023-02-21T19:58:13;7.40;99.90
7196;DHT22;3639;51.308;5.624;2023-02-21T20:00:39;7.40;99.90
7196;DHT22;3639;51.308;5.624;2023-02-21T20:03:08;7.40;99.90